createdAt,value
2018-10-09T00:00:21.235Z,13.10
2018-10-09T00:05:24.435Z,13.10
2018-10-09T00:10:27.706Z,13.00
2018-10-09T00:15:30.945Z,13.00
2018-10-09T00:20:34.163Z,13.00
2018-10-09T00:25:37.353Z,12.90
2018-10-09T00:30:40.583Z,12.90
2018-10-09T00:35:43.816Z,12.80
2018-10-09T00:40:47.012Z,12.80
2018-10-09T00:45:50.107Z,12.80
2018-10-09T00:50:53.210Z,12.80
2018-10-09T00:55:56.316Z,12.70
2018-10-09T01:00:59.428Z,12.70
2018-10-09T01:06:02.527Z,12.60
2018-10-09T01:11:05.747Z,12.60
2018-10-09T01:16:09.229Z,12.50
2018-10-09T01:21:12.327Z,12.50
2018-10-09T01:26:15.436Z,12.50
2018-10-09T01:31:18.535Z,12.40
2018-10-09T01:36:21.799Z,12.40
2018-10-09T01:41:24.909Z,12.30
2018-10-09T01:46:28.020Z,12.30
2018-10-09T01:51:31.125Z,12.30
2018-10-09T01:56:34.346Z,12.20
2018-10-09T02:01:37.448Z,12.20
2018-10-09T02:06:40.552Z,12.10
2018-10-09T02:11:43.664Z,12.10
2018-10-09T02:16:46.787Z,12.10
2018-10-09T02:21:49.887Z,12.00
2018-10-09T02:26:52.992Z,12.00
2018-10-09T02:31:56.093Z,12.00
2018-10-09T02:36:59.204Z,11.90
2018-10-09T02:42:02.315Z,11.90
2018-10-09T02:47:05.648Z,11.80
2018-10-09T02:52:08.756Z,11.80
2018-10-09T02:57:11.864Z,11.80
2018-10-09T03:02:14.979Z,11.70
2018-10-09T03:07:18.087Z,11.70
2018-10-09T03:12:21.181Z,11.60
2018-10-09T03:17:24.295Z,11.60
2018-10-09T03:22:27.399Z,11.60
2018-10-09T03:27:30.504Z,11.60
2018-10-09T03:32:33.840Z,11.60
2018-10-09T03:37:37.111Z,11.50
2018-10-09T03:42:40.219Z,11.50
2018-10-09T03:47:43.339Z,11.50
2018-10-09T03:52:46.443Z,11.50
2018-10-09T03:57:49.579Z,11.50
2018-10-09T04:02:52.663Z,11.40
2018-10-09T04:07:55.778Z,11.50
2018-10-09T04:12:58.887Z,11.50
2018-10-09T04:18:01.995Z,11.40
2018-10-09T04:23:06.029Z,11.40
2018-10-09T04:28:09.135Z,11.40
2018-10-09T04:33:12.235Z,11.40
2018-10-09T04:38:15.339Z,11.40
2018-10-09T04:43:18.452Z,11.40
2018-10-09T04:48:21.560Z,11.40
2018-10-09T04:53:24.696Z,11.40
2018-10-09T04:58:27.887Z,11.30
2018-10-09T05:03:30.992Z,11.40
2018-10-09T05:08:34.107Z,11.30
2018-10-09T05:13:37.449Z,11.30
2018-10-09T05:18:40.571Z,11.30
2018-10-09T05:23:43.684Z,11.30
2018-10-09T05:28:46.917Z,11.30
2018-10-09T05:33:50.009Z,11.30
2018-10-09T05:38:53.115Z,11.30
2018-10-09T05:43:56.228Z,11.30
2018-10-09T05:48:59.345Z,11.30
2018-10-09T05:54:02.448Z,11.20
2018-10-09T05:59:05.560Z,11.30
2018-10-09T06:04:09.715Z,11.30
2018-10-09T06:09:12.854Z,11.30
2018-10-09T06:14:15.969Z,11.30
2018-10-09T06:19:19.080Z,11.30
2018-10-09T06:24:22.191Z,11.30
2018-10-09T06:29:25.312Z,11.30
2018-10-09T06:34:28.419Z,11.30
2018-10-09T06:39:31.523Z,11.30
2018-10-09T06:44:34.640Z,11.30
2018-10-09T06:49:37.747Z,11.30
2018-10-09T06:54:40.952Z,11.40
2018-10-09T06:59:43.972Z,11.40
2018-10-09T07:04:47.112Z,11.50
2018-10-09T07:09:50.228Z,11.50
2018-10-09T07:14:53.373Z,11.50
2018-10-09T07:19:56.485Z,11.60
2018-10-09T07:24:59.592Z,11.60
2018-10-09T07:30:02.716Z,11.70
2018-10-09T07:35:06.644Z,11.70
2018-10-09T07:40:09.757Z,11.80
2018-10-09T07:45:12.866Z,11.80
2018-10-09T07:50:15.975Z,11.90
2018-10-09T07:55:19.178Z,11.90
2018-10-09T08:00:22.429Z,12.00
2018-10-09T08:05:25.532Z,12.10
2018-10-09T08:10:28.653Z,12.10
2018-10-09T08:15:31.753Z,12.20
2018-10-09T08:20:34.874Z,12.20
2018-10-09T08:25:38.188Z,12.30
2018-10-09T08:30:41.297Z,12.30
2018-10-09T08:35:44.441Z,12.40
2018-10-09T08:40:47.655Z,12.40
2018-10-09T08:45:50.779Z,12.40
2018-10-09T08:50:53.879Z,12.50
2018-10-09T08:55:56.996Z,12.50
2018-10-09T09:01:00.102Z,12.50
2018-10-09T09:06:03.213Z,12.60
2018-10-09T09:11:06.339Z,12.70
2018-10-09T09:16:09.454Z,12.70
2018-10-09T09:21:12.672Z,12.80
2018-10-09T09:26:15.749Z,12.80
2018-10-09T09:31:18.868Z,12.90
2018-10-09T09:36:21.977Z,13.00
2018-10-09T09:41:25.089Z,13.10
2018-10-09T09:46:28.248Z,13.10
2018-10-09T09:51:31.361Z,13.20
2018-10-09T09:56:34.471Z,13.30
2018-10-09T10:01:41.232Z,13.30
2018-10-09T10:06:44.392Z,13.40
2018-10-09T10:11:47.457Z,13.50
2018-10-09T10:16:50.589Z,13.50
2018-10-09T10:21:53.692Z,13.60
2018-10-09T10:26:56.840Z,13.70
2018-10-09T10:31:59.953Z,13.80
2018-10-09T10:37:03.061Z,13.90
2018-10-09T10:42:06.275Z,13.90
2018-10-09T10:47:09.389Z,14.00
2018-10-09T10:52:12.500Z,14.10
2018-10-09T10:57:15.608Z,14.30
2018-10-09T11:02:18.717Z,14.50
2018-10-09T11:07:21.829Z,14.60
2018-10-09T11:12:24.942Z,15.00
2018-10-09T11:17:28.069Z,15.30
2018-10-09T11:22:31.180Z,15.60
2018-10-09T11:27:34.293Z,16.00
2018-10-09T11:32:37.551Z,16.40
2018-10-09T11:37:40.572Z,16.70
2018-10-09T11:42:43.712Z,17.00
2018-10-09T11:47:46.784Z,17.30
2018-10-09T11:52:49.892Z,17.60
2018-10-09T11:57:53.088Z,17.90
2018-10-09T12:02:56.247Z,18.20
2018-10-09T12:07:59.388Z,18.50
2018-10-09T12:13:02.772Z,18.80
2018-10-09T12:18:05.888Z,19.10
2018-10-09T12:23:09.061Z,19.40
2018-10-09T12:28:12.177Z,19.60
2018-10-09T12:33:15.312Z,19.80
2018-10-09T12:38:18.459Z,20.00
2018-10-09T12:43:21.548Z,20.20
2018-10-09T12:48:24.664Z,20.30
2018-10-09T12:53:27.776Z,20.40
2018-10-09T12:58:30.916Z,20.50
2018-10-09T13:03:34.004Z,20.50
2018-10-09T13:08:37.115Z,20.50
2018-10-09T13:13:40.225Z,20.50
2018-10-09T13:18:43.344Z,20.50
2018-10-09T13:23:46.465Z,20.50
2018-10-09T13:28:49.585Z,20.60
2018-10-09T13:33:52.698Z,20.60
2018-10-09T13:38:55.800Z,20.70
2018-10-09T13:43:58.937Z,20.70
2018-10-09T13:49:02.049Z,20.70
2018-10-09T13:54:05.548Z,20.70
2018-10-09T13:59:08.729Z,20.80
2018-10-09T14:04:11.840Z,20.80
2018-10-09T14:09:14.960Z,20.80
2018-10-09T14:14:18.088Z,20.80
2018-10-09T14:19:21.223Z,20.80
2018-10-09T14:24:24.341Z,20.80
2018-10-09T14:29:27.444Z,20.70
2018-10-09T14:34:30.616Z,20.60
2018-10-09T14:39:33.724Z,20.70
2018-10-09T14:44:36.848Z,20.70
2018-10-09T14:49:39.951Z,20.70
2018-10-09T14:54:43.065Z,20.70
2018-10-09T14:59:46.188Z,20.70
2018-10-09T15:04:49.304Z,20.70
2018-10-09T15:09:52.413Z,20.60
2018-10-09T15:14:55.527Z,20.60
2018-10-09T15:19:58.636Z,20.60
2018-10-09T15:25:01.751Z,20.50
2018-10-09T15:30:05.799Z,20.50
2018-10-09T15:35:09.153Z,20.40
2018-10-09T15:40:12.232Z,20.30
2018-10-09T15:45:15.490Z,20.20
2018-10-09T15:50:18.733Z,20.10
2018-10-09T15:55:22.298Z,20.10
2018-10-09T16:00:25.564Z,19.90
2018-10-09T16:05:28.733Z,19.80
2018-10-09T16:10:31.992Z,19.70
2018-10-09T16:15:35.109Z,19.60
2018-10-09T16:20:38.278Z,19.50
2018-10-09T16:25:41.365Z,19.30
2018-10-09T16:30:44.493Z,19.20
2018-10-09T16:35:47.627Z,19.10
2018-10-09T16:40:50.735Z,18.90
2018-10-09T16:45:53.849Z,18.70
2018-10-09T16:50:56.961Z,18.60
2018-10-09T16:56:00.249Z,18.40
2018-10-09T17:01:03.360Z,18.30
2018-10-09T17:06:06.542Z,18.10
2018-10-09T17:11:09.687Z,18.00
2018-10-09T17:16:12.942Z,17.80
2018-10-09T17:21:16.057Z,17.60
2018-10-09T17:26:19.273Z,17.50
2018-10-09T17:31:22.372Z,17.30
2018-10-09T17:36:25.472Z,17.20
2018-10-09T17:41:28.585Z,17.10
2018-10-09T17:46:31.863Z,17.00
2018-10-09T17:51:34.816Z,16.80
2018-10-09T17:56:37.955Z,16.70
2018-10-09T18:01:41.066Z,16.60
2018-10-09T18:06:44.176Z,16.40
2018-10-09T18:11:47.361Z,16.30
2018-10-09T18:16:50.489Z,16.20
2018-10-09T18:21:53.593Z,16.10
2018-10-09T18:26:56.713Z,16.00
2018-10-09T18:31:59.824Z,15.90
2018-10-09T18:37:02.958Z,15.80
2018-10-09T18:42:06.622Z,15.70
2018-10-09T18:47:15.101Z,15.60
2018-10-09T18:52:18.231Z,15.50
2018-10-09T18:57:21.340Z,15.40
2018-10-09T19:02:24.485Z,15.40
2018-10-09T19:07:28.155Z,15.30
2018-10-09T19:12:31.352Z,15.20
2018-10-09T19:17:34.468Z,15.10
2018-10-09T19:22:37.619Z,15.00
2018-10-09T19:27:40.733Z,15.00
2018-10-09T19:32:43.996Z,14.90
2018-10-09T19:37:46.964Z,14.80
2018-10-09T19:42:50.071Z,14.70
2018-10-09T19:47:53.200Z,14.60
2018-10-09T19:52:56.316Z,14.50
2018-10-09T19:57:59.424Z,14.50
2018-10-09T20:03:02.661Z,14.40
2018-10-09T20:08:06.546Z,14.30
2018-10-09T20:13:09.905Z,14.20
2018-10-09T20:18:13.012Z,14.20
2018-10-09T20:23:16.476Z,14.10
2018-10-09T20:28:19.685Z,14.00
2018-10-09T20:33:22.853Z,13.90
2018-10-09T20:38:26.014Z,13.90
2018-10-09T20:43:29.257Z,13.80
2018-10-09T20:48:32.376Z,13.70
2018-10-09T20:53:35.489Z,13.60
2018-10-09T20:58:38.884Z,13.60
2018-10-09T21:03:41.984Z,13.50
2018-10-09T21:08:45.098Z,13.40
2018-10-09T21:13:48.205Z,13.40
2018-10-09T21:18:51.317Z,13.30
2018-10-09T21:23:54.425Z,13.20
2018-10-09T21:28:57.538Z,13.20
2018-10-09T21:34:00.649Z,13.10
2018-10-09T21:39:05.014Z,13.00
2018-10-09T21:44:08.133Z,13.00
2018-10-09T21:49:11.244Z,12.90
2018-10-09T21:54:14.360Z,12.90
2018-10-09T21:59:17.500Z,12.80
2018-10-09T22:04:20.623Z,12.80
2018-10-09T22:09:23.720Z,12.70
2018-10-09T22:14:26.828Z,12.60
2018-10-09T22:19:29.944Z,12.60
2018-10-09T22:24:33.128Z,12.50
2018-10-09T22:29:36.145Z,12.50
2018-10-09T22:34:39.562Z,12.40
2018-10-09T22:39:42.734Z,12.40
2018-10-09T22:44:45.854Z,12.40
2018-10-09T22:49:48.958Z,12.30
2018-10-09T22:54:52.080Z,12.30
2018-10-09T22:59:55.204Z,12.20
2018-10-09T23:04:58.326Z,12.20
2018-10-09T23:10:01.487Z,12.20
2018-10-09T23:15:05.884Z,12.20
2018-10-09T23:20:09.269Z,12.10
2018-10-09T23:25:12.672Z,12.10
2018-10-09T23:30:15.797Z,12.00
2018-10-09T23:35:18.912Z,12.00
2018-10-09T23:40:22.027Z,12.00
2018-10-09T23:45:25.145Z,12.00
2018-10-09T23:50:28.354Z,11.90
2018-10-09T23:55:31.479Z,11.90
